sensor_id;sensor_type;location;lat;lon;timestamp;P1;durP1;ratioP1;P2;durP2;ratioP2
75135;SDS011;63707;52.212;9.540;2023-08-06T00:00:15;17.38;;;8.98;;
75135;SDS011;63707;52.212;9.540;2023-08-06T00:02:40;17.77;;;9.02;;
75135;SDS011;63707;52.212;9.540;2023-08-06T00:05:06;18.80;;;8.98;;
75135;SDS011;63707;52.212;9.540;2023-08-06T00:07:33;13.73;;;8.27;;
75135;SDS011;63707;52.212;9.540;2023-08-06T00:09:59;16.60;;;9.50;;
75135;SDS011;63707;52.212;9.540;2023-08-06T00:12:24;17.00;;;9.45;;
75135;SDS011;63707;52.212;9.540;2023-08-06T00:14:50;17.85;;;9.70;;
75135;SDS011;63707;52.212;9.540;2023-08-06T00:17:15;15.77;;;9.13;;
75135;SDS011;63707;52.212;9.540;2023-08-06T00:19:41;19.08;;;9.73;;
75135;SDS011;63707;52.212;9.540;2023-08-06T00:22:06;13.82;;;8.10;;
75135;SDS011;63707;52.212;9.540;2023-08-06T00:24:33;16.90;;;9.48;;
75135;SDS011;63707;52.212;9.540;2023-08-06T00:26:59;15.82;;;8.85;;
75135;SDS011;63707;52.212;9.540;2023-08-06T00:29:24;15.10;;;8.65;;
75135;SDS011;63707;52.212;9.540;2023-08-06T00:31:50;14.23;;;8.60;;
75135;SDS011;63707;52.212;9.540;2023-08-06T00:34:23;14.00;;;8.30;;
75135;SDS011;63707;52.212;9.540;2023-08-06T00:36:49;14.77;;;8.25;;
75135;SDS011;63707;52.212;9.540;2023-08-06T00:39:14;16.65;;;8.02;;
75135;SDS011;63707;52.212;9.540;2023-08-06T00:41:39;14.30;;;8.25;;
75135;SDS011;63707;52.212;9.540;2023-08-06T00:44:05;16.77;;;8.10;;
75135;SDS011;63707;52.212;9.540;2023-08-06T00:46:31;15.30;;;7.55;;
75135;SDS011;63707;52.212;9.540;2023-08-06T00:48:57;15.90;;;8.05;;
75135;SDS011;63707;52.212;9.540;2023-08-06T00:51:24;13.75;;;7.65;;
75135;SDS011;63707;52.212;9.540;2023-08-06T00:53:50;15.38;;;7.63;;
75135;SDS011;63707;52.212;9.540;2023-08-06T00:56:17;13.23;;;7.13;;
75135;SDS011;63707;52.212;9.540;2023-08-06T00:58:44;16.25;;;7.70;;
75135;SDS011;63707;52.212;9.540;2023-08-06T01:01:10;16.17;;;7.88;;
75135;SDS011;63707;52.212;9.540;2023-08-06T01:03:36;10.82;;;7.18;;
75135;SDS011;63707;52.212;9.540;2023-08-06T01:06:01;9.38;;;5.68;;
75135;SDS011;63707;52.212;9.540;2023-08-06T01:08:30;10.15;;;6.07;;
75135;SDS011;63707;52.212;9.540;2023-08-06T01:11:14;13.27;;;6.55;;
75135;SDS011;63707;52.212;9.540;2023-08-06T01:13:47;12.07;;;6.60;;
75135;SDS011;63707;52.212;9.540;2023-08-06T01:16:17;10.35;;;6.65;;
75135;SDS011;63707;52.212;9.540;2023-08-06T01:18:46;11.55;;;5.78;;
75135;SDS011;63707;52.212;9.540;2023-08-06T01:21:15;17.00;;;6.43;;
75135;SDS011;63707;52.212;9.540;2023-08-06T01:23:41;9.38;;;5.80;;
75135;SDS011;63707;52.212;9.540;2023-08-06T01:26:10;8.23;;;5.55;;
75135;SDS011;63707;52.212;9.540;2023-08-06T01:28:40;11.10;;;6.22;;
75135;SDS011;63707;52.212;9.540;2023-08-06T01:31:15;8.57;;;5.60;;
75135;SDS011;63707;52.212;9.540;2023-08-06T01:33:46;10.60;;;5.72;;
75135;SDS011;63707;52.212;9.540;2023-08-06T01:36:16;11.10;;;5.90;;
75135;SDS011;63707;52.212;9.540;2023-08-06T01:38:43;10.77;;;5.32;;
75135;SDS011;63707;52.212;9.540;2023-08-06T01:41:09;8.55;;;5.35;;
75135;SDS011;63707;52.212;9.540;2023-08-06T01:43:35;10.40;;;5.03;;
75135;SDS011;63707;52.212;9.540;2023-08-06T01:46:00;9.25;;;5.25;;
75135;SDS011;63707;52.212;9.540;2023-08-06T01:48:26;11.30;;;5.30;;
75135;SDS011;63707;52.212;9.540;2023-08-06T01:50:51;9.65;;;5.00;;
75135;SDS011;63707;52.212;9.540;2023-08-06T01:53:18;7.72;;;4.57;;
75135;SDS011;63707;52.212;9.540;2023-08-06T01:55:47;7.55;;;4.50;;
75135;SDS011;63707;52.212;9.540;2023-08-06T01:58:13;8.30;;;4.65;;
75135;SDS011;63707;52.212;9.540;2023-08-06T02:00:38;6.55;;;4.05;;
75135;SDS011;63707;52.212;9.540;2023-08-06T02:03:04;6.90;;;4.45;;
75135;SDS011;63707;52.212;9.540;2023-08-06T02:05:29;8.82;;;4.68;;
75135;SDS011;63707;52.212;9.540;2023-08-06T02:07:54;8.35;;;4.30;;
75135;SDS011;63707;52.212;9.540;2023-08-06T02:10:21;7.93;;;4.45;;
75135;SDS011;63707;52.212;9.540;2023-08-06T02:12:47;7.70;;;4.90;;
75135;SDS011;63707;52.212;9.540;2023-08-06T02:15:12;7.13;;;4.38;;
75135;SDS011;63707;52.212;9.540;2023-08-06T02:17:38;10.65;;;4.93;;
75135;SDS011;63707;52.212;9.540;2023-08-06T02:20:04;8.93;;;4.80;;
75135;SDS011;63707;52.212;9.540;2023-08-06T02:22:30;10.38;;;5.03;;
75135;SDS011;63707;52.212;9.540;2023-08-06T02:24:56;9.55;;;4.68;;
75135;SDS011;63707;52.212;9.540;2023-08-06T02:27:23;9.73;;;4.68;;
75135;SDS011;63707;52.212;9.540;2023-08-06T02:29:48;8.07;;;4.97;;
75135;SDS011;63707;52.212;9.540;2023-08-06T02:32:14;10.52;;;4.82;;
75135;SDS011;63707;52.212;9.540;2023-08-06T02:34:39;8.82;;;4.68;;
75135;SDS011;63707;52.212;9.540;2023-08-06T02:37:05;12.00;;;4.95;;
75135;SDS011;63707;52.212;9.540;2023-08-06T02:39:30;9.88;;;4.65;;
75135;SDS011;63707;52.212;9.540;2023-08-06T02:41:56;10.50;;;5.30;;
75135;SDS011;63707;52.212;9.540;2023-08-06T02:44:22;10.80;;;5.10;;
75135;SDS011;63707;52.212;9.540;2023-08-06T02:46:48;10.68;;;5.40;;
75135;SDS011;63707;52.212;9.540;2023-08-06T02:49:13;8.68;;;4.80;;
75135;SDS011;63707;52.212;9.540;2023-08-06T02:51:39;8.40;;;4.70;;
75135;SDS011;63707;52.212;9.540;2023-08-06T02:54:04;8.13;;;4.60;;
75135;SDS011;63707;52.212;9.540;2023-08-06T02:56:30;8.77;;;4.90;;
75135;SDS011;63707;52.212;9.540;2023-08-06T02:58:55;6.15;;;4.45;;
75135;SDS011;63707;52.212;9.540;2023-08-06T03:01:22;8.75;;;4.40;;
75135;SDS011;63707;52.212;9.540;2023-08-06T03:03:48;9.80;;;5.05;;
75135;SDS011;63707;52.212;9.540;2023-08-06T03:06:13;8.57;;;4.85;;
75135;SDS011;63707;52.212;9.540;2023-08-06T03:08:39;8.90;;;4.90;;
75135;SDS011;63707;52.212;9.540;2023-08-06T03:11:05;12.30;;;4.97;;
75135;SDS011;63707;52.212;9.540;2023-08-06T03:13:30;9.20;;;5.40;;
75135;SDS011;63707;52.212;9.540;2023-08-06T03:15:56;11.40;;;5.93;;
75135;SDS011;63707;52.212;9.540;2023-08-06T03:18:24;8.85;;;5.60;;
75135;SDS011;63707;52.212;9.540;2023-08-06T03:20:51;11.98;;;4.63;;
75135;SDS011;63707;52.212;9.540;2023-08-06T03:23:16;9.82;;;4.93;;
75135;SDS011;63707;52.212;9.540;2023-08-06T03:25:42;7.85;;;4.47;;
75135;SDS011;63707;52.212;9.540;2023-08-06T03:28:08;10.75;;;4.95;;
75135;SDS011;63707;52.212;9.540;2023-08-06T03:30:33;7.20;;;4.63;;
75135;SDS011;63707;52.212;9.540;2023-08-06T03:32:59;10.15;;;4.93;;
75135;SDS011;63707;52.212;9.540;2023-08-06T03:35:25;8.90;;;4.32;;
75135;SDS011;63707;52.212;9.540;2023-08-06T03:37:51;11.13;;;4.70;;
75135;SDS011;63707;52.212;9.540;2023-08-06T03:40:16;11.57;;;4.80;;
75135;SDS011;63707;52.212;9.540;2023-08-06T03:42:42;6.43;;;4.22;;
75135;SDS011;63707;52.212;9.540;2023-08-06T03:45:08;9.07;;;4.30;;
75135;SDS011;63707;52.212;9.540;2023-08-06T03:47:34;9.57;;;4.65;;
75135;SDS011;63707;52.212;9.540;2023-08-06T03:49:59;8.38;;;4.10;;
75135;SDS011;63707;52.212;9.540;2023-08-06T03:52:26;9.88;;;4.45;;
75135;SDS011;63707;52.212;9.540;2023-08-06T03:54:51;11.98;;;4.97;;
75135;SDS011;63707;52.212;9.540;2023-08-06T03:57:17;8.18;;;4.30;;
75135;SDS011;63707;52.212;9.540;2023-08-06T03:59:43;8.20;;;4.68;;
75135;SDS011;63707;52.212;9.540;2023-08-06T04:02:08;9.30;;;4.65;;
75135;SDS011;63707;52.212;9.540;2023-08-06T04:04:33;9.73;;;4.57;;
75135;SDS011;63707;52.212;9.540;2023-08-06T04:06:59;11.63;;;4.95;;
75135;SDS011;63707;52.212;9.540;2023-08-06T04:09:27;13.32;;;5.15;;
75135;SDS011;63707;52.212;9.540;2023-08-06T04:11:53;11.15;;;5.50;;
75135;SDS011;63707;52.212;9.540;2023-08-06T04:14:19;11.15;;;4.90;;
75135;SDS011;63707;52.212;9.540;2023-08-06T04:16:44;10.05;;;4.95;;
75135;SDS011;63707;52.212;9.540;2023-08-06T04:19:10;9.98;;;5.10;;
75135;SDS011;63707;52.212;9.540;2023-08-06T04:21:35;8.23;;;5.28;;
75135;SDS011;63707;52.212;9.540;2023-08-06T04:24:01;12.73;;;5.43;;
75135;SDS011;63707;52.212;9.540;2023-08-06T04:26:28;8.95;;;5.18;;
75135;SDS011;63707;52.212;9.540;2023-08-06T04:28:53;9.95;;;5.63;;
75135;SDS011;63707;52.212;9.540;2023-08-06T04:31:19;11.32;;;5.72;;
75135;SDS011;63707;52.212;9.540;2023-08-06T04:33:44;10.25;;;5.18;;
75135;SDS011;63707;52.212;9.540;2023-08-06T04:36:10;11.43;;;5.35;;
75135;SDS011;63707;52.212;9.540;2023-08-06T04:38:35;9.07;;;5.32;;
75135;SDS011;63707;52.212;9.540;2023-08-06T04:41:01;9.15;;;5.63;;
75135;SDS011;63707;52.212;9.540;2023-08-06T04:43:29;10.52;;;5.68;;
75135;SDS011;63707;52.212;9.540;2023-08-06T04:45:54;13.45;;;6.22;;
75135;SDS011;63707;52.212;9.540;2023-08-06T04:48:21;9.27;;;5.82;;
75135;SDS011;63707;52.212;9.540;2023-08-06T04:50:47;16.63;;;6.80;;
75135;SDS011;63707;52.212;9.540;2023-08-06T04:53:13;15.38;;;7.05;;
75135;SDS011;63707;52.212;9.540;2023-08-06T04:55:38;12.75;;;6.90;;
75135;SDS011;63707;52.212;9.540;2023-08-06T04:58:04;15.48;;;7.43;;
75135;SDS011;63707;52.212;9.540;2023-08-06T05:00:31;13.63;;;7.75;;
75135;SDS011;63707;52.212;9.540;2023-08-06T05:02:59;21.38;;;9.40;;
75135;SDS011;63707;52.212;9.540;2023-08-06T05:05:24;17.48;;;8.48;;
75135;SDS011;63707;52.212;9.540;2023-08-06T05:07:50;19.55;;;9.85;;
75135;SDS011;63707;52.212;9.540;2023-08-06T05:10:15;20.52;;;9.65;;
75135;SDS011;63707;52.212;9.540;2023-08-06T05:12:41;21.08;;;10.77;;
75135;SDS011;63707;52.212;9.540;2023-08-06T05:15:07;23.63;;;10.70;;
75135;SDS011;63707;52.212;9.540;2023-08-06T05:17:34;22.50;;;10.48;;
75135;SDS011;63707;52.212;9.540;2023-08-06T05:20:00;18.92;;;9.05;;
75135;SDS011;63707;52.212;9.540;2023-08-06T05:22:25;19.35;;;9.35;;
75135;SDS011;63707;52.212;9.540;2023-08-06T05:24:51;21.05;;;9.45;;
75135;SDS011;63707;52.212;9.540;2023-08-06T05:27:16;24.52;;;11.38;;
75135;SDS011;63707;52.212;9.540;2023-08-06T05:29:44;70.20;;;14.68;;
75135;SDS011;63707;52.212;9.540;2023-08-06T05:32:09;53.58;;;13.32;;
75135;SDS011;63707;52.212;9.540;2023-08-06T05:34:36;29.48;;;12.45;;
75135;SDS011;63707;52.212;9.540;2023-08-06T05:37:02;27.77;;;11.60;;
75135;SDS011;63707;52.212;9.540;2023-08-06T05:39:28;40.33;;;12.98;;
75135;SDS011;63707;52.212;9.540;2023-08-06T05:41:53;26.67;;;12.57;;
75135;SDS011;63707;52.212;9.540;2023-08-06T05:44:20;49.78;;;13.95;;
75135;SDS011;63707;52.212;9.540;2023-08-06T05:46:45;32.50;;;13.63;;
75135;SDS011;63707;52.212;9.540;2023-08-06T05:49:11;32.13;;;13.55;;
75135;SDS011;63707;52.212;9.540;2023-08-06T05:51:39;28.80;;;12.73;;
75135;SDS011;63707;52.212;9.540;2023-08-06T05:54:05;56.33;;;13.50;;
75135;SDS011;63707;52.212;9.540;2023-08-06T05:56:30;27.38;;;12.63;;
75135;SDS011;63707;52.212;9.540;2023-08-06T05:58:56;27.67;;;12.85;;
75135;SDS011;63707;52.212;9.540;2023-08-06T06:01:21;29.33;;;13.00;;
75135;SDS011;63707;52.212;9.540;2023-08-06T06:03:47;28.77;;;13.10;;
75135;SDS011;63707;52.212;9.540;2023-08-06T06:06:12;25.50;;;13.77;;
75135;SDS011;63707;52.212;9.540;2023-08-06T06:08:39;24.35;;;13.57;;
75135;SDS011;63707;52.212;9.540;2023-08-06T06:11:05;22.85;;;12.63;;
75135;SDS011;63707;52.212;9.540;2023-08-06T06:13:30;20.27;;;11.48;;
75135;SDS011;63707;52.212;9.540;2023-08-06T06:15:55;22.65;;;12.15;;
75135;SDS011;63707;52.212;9.540;2023-08-06T06:18:21;21.40;;;12.57;;
75135;SDS011;63707;52.212;9.540;2023-08-06T06:20:47;18.20;;;11.23;;
75135;SDS011;63707;52.212;9.540;2023-08-06T06:23:12;21.95;;;11.65;;
75135;SDS011;63707;52.212;9.540;2023-08-06T06:25:42;17.50;;;11.38;;
75135;SDS011;63707;52.212;9.540;2023-08-06T06:28:08;12.90;;;9.02;;
75135;SDS011;63707;52.212;9.540;2023-08-06T06:30:34;17.73;;;10.90;;
75135;SDS011;63707;52.212;9.540;2023-08-06T06:32:59;16.88;;;10.20;;
75135;SDS011;63707;52.212;9.540;2023-08-06T06:35:25;16.70;;;9.65;;
75135;SDS011;63707;52.212;9.540;2023-08-06T06:37:51;13.88;;;9.45;;
75135;SDS011;63707;52.212;9.540;2023-08-06T06:40:16;11.75;;;8.60;;
75135;SDS011;63707;52.212;9.540;2023-08-06T06:42:43;12.50;;;8.02;;
75135;SDS011;63707;52.212;9.540;2023-08-06T06:45:09;13.20;;;9.10;;
75135;SDS011;63707;52.212;9.540;2023-08-06T06:47:34;14.32;;;9.90;;
75135;SDS011;63707;52.212;9.540;2023-08-06T06:50:00;13.38;;;9.40;;
75135;SDS011;63707;52.212;9.540;2023-08-06T06:52:25;12.75;;;9.00;;
75135;SDS011;63707;52.212;9.540;2023-08-06T06:54:51;13.18;;;8.90;;
75135;SDS011;63707;52.212;9.540;2023-08-06T06:57:16;11.48;;;8.52;;
75135;SDS011;63707;52.212;9.540;2023-08-06T06:59:43;11.75;;;8.15;;
75135;SDS011;63707;52.212;9.540;2023-08-06T07:02:09;11.50;;;8.05;;
75135;SDS011;63707;52.212;9.540;2023-08-06T07:04:34;11.02;;;7.35;;
75135;SDS011;63707;52.212;9.540;2023-08-06T07:07:00;14.02;;;8.13;;
75135;SDS011;63707;52.212;9.540;2023-08-06T07:09:25;7.05;;;5.47;;
75135;SDS011;63707;52.212;9.540;2023-08-06T07:11:51;9.38;;;6.85;;
75135;SDS011;63707;52.212;9.540;2023-08-06T07:14:17;9.32;;;4.88;;
75135;SDS011;63707;52.212;9.540;2023-08-06T07:16:44;6.60;;;4.00;;
75135;SDS011;63707;52.212;9.540;2023-08-06T07:19:09;3.53;;;2.97;;
75135;SDS011;63707;52.212;9.540;2023-08-06T07:21:35;5.03;;;3.00;;
75135;SDS011;63707;52.212;9.540;2023-08-06T07:24:00;4.30;;;2.80;;
75135;SDS011;63707;52.212;9.540;2023-08-06T07:26:26;4.97;;;2.63;;
75135;SDS011;63707;52.212;9.540;2023-08-06T07:28:51;3.75;;;2.55;;
75135;SDS011;63707;52.212;9.540;2023-08-06T07:31:17;5.15;;;2.50;;
75135;SDS011;63707;52.212;9.540;2023-08-06T07:33:44;4.40;;;2.40;;
75135;SDS011;63707;52.212;9.540;2023-08-06T07:36:10;7.93;;;2.70;;
75135;SDS011;63707;52.212;9.540;2023-08-06T07:38:37;3.65;;;2.50;;
75135;SDS011;63707;52.212;9.540;2023-08-06T07:41:02;4.10;;;2.50;;
75135;SDS011;63707;52.212;9.540;2023-08-06T07:43:28;3.60;;;2.97;;
75135;SDS011;63707;52.212;9.540;2023-08-06T07:45:54;5.05;;;2.90;;
75135;SDS011;63707;52.212;9.540;2023-08-06T07:48:22;4.00;;;2.72;;
75135;SDS011;63707;52.212;9.540;2023-08-06T07:50:52;3.33;;;2.60;;
75135;SDS011;63707;52.212;9.540;2023-08-06T07:53:18;4.00;;;2.70;;
75135;SDS011;63707;52.212;9.540;2023-08-06T07:55:47;4.28;;;2.60;;
75135;SDS011;63707;52.212;9.540;2023-08-06T07:58:14;4.20;;;2.58;;
75135;SDS011;63707;52.212;9.540;2023-08-06T08:00:40;5.32;;;2.80;;
75135;SDS011;63707;52.212;9.540;2023-08-06T08:03:07;3.78;;;2.60;;
75135;SDS011;63707;52.212;9.540;2023-08-06T08:05:33;3.90;;;2.83;;
75135;SDS011;63707;52.212;9.540;2023-08-06T08:07:59;3.78;;;2.13;;
75135;SDS011;63707;52.212;9.540;2023-08-06T08:10:25;4.15;;;2.47;;
75135;SDS011;63707;52.212;9.540;2023-08-06T08:12:50;2.53;;;2.15;;
75135;SDS011;63707;52.212;9.540;2023-08-06T08:15:16;5.28;;;2.75;;
75135;SDS011;63707;52.212;9.540;2023-08-06T08:17:42;6.05;;;2.33;;
75135;SDS011;63707;52.212;9.540;2023-08-06T08:20:08;4.78;;;2.90;;
75135;SDS011;63707;52.212;9.540;2023-08-06T08:22:34;5.90;;;2.63;;
75135;SDS011;63707;52.212;9.540;2023-08-06T08:25:01;5.50;;;2.58;;
75135;SDS011;63707;52.212;9.540;2023-08-06T08:27:26;3.80;;;2.30;;
75135;SDS011;63707;52.212;9.540;2023-08-06T08:29:52;3.08;;;2.20;;
75135;SDS011;63707;52.212;9.540;2023-08-06T08:32:17;3.25;;;2.42;;
75135;SDS011;63707;52.212;9.540;2023-08-06T08:34:42;3.90;;;2.42;;
75135;SDS011;63707;52.212;9.540;2023-08-06T08:37:09;3.88;;;2.58;;
75135;SDS011;63707;52.212;9.540;2023-08-06T08:39:34;3.35;;;2.28;;
75135;SDS011;63707;52.212;9.540;2023-08-06T08:42:01;6.30;;;2.40;;
75135;SDS011;63707;52.212;9.540;2023-08-06T08:44:28;3.28;;;2.30;;
75135;SDS011;63707;52.212;9.540;2023-08-06T08:46:56;4.70;;;2.33;;
75135;SDS011;63707;52.212;9.540;2023-08-06T08:49:23;4.03;;;2.55;;
75135;SDS011;63707;52.212;9.540;2023-08-06T08:51:49;2.35;;;2.00;;
75135;SDS011;63707;52.212;9.540;2023-08-06T08:54:17;4.20;;;2.15;;
75135;SDS011;63707;52.212;9.540;2023-08-06T08:56:45;3.05;;;1.98;;
75135;SDS011;63707;52.212;9.540;2023-08-06T08:59:12;3.20;;;1.90;;
75135;SDS011;63707;52.212;9.540;2023-08-06T09:01:37;2.92;;;2.05;;
75135;SDS011;63707;52.212;9.540;2023-08-06T09:04:05;3.92;;;2.00;;
75135;SDS011;63707;52.212;9.540;2023-08-06T09:06:31;3.92;;;2.13;;
75135;SDS011;63707;52.212;9.540;2023-08-06T09:09:01;4.65;;;2.30;;
75135;SDS011;63707;52.212;9.540;2023-08-06T09:11:31;3.15;;;2.00;;
75135;SDS011;63707;52.212;9.540;2023-08-06T09:14:04;3.72;;;2.00;;
75135;SDS011;63707;52.212;9.540;2023-08-06T09:16:33;2.92;;;1.95;;
75135;SDS011;63707;52.212;9.540;2023-08-06T09:19:00;3.38;;;2.03;;
75135;SDS011;63707;52.212;9.540;2023-08-06T09:21:32;3.05;;;2.00;;
75135;SDS011;63707;52.212;9.540;2023-08-06T09:23:58;2.35;;;1.70;;
75135;SDS011;63707;52.212;9.540;2023-08-06T09:26:24;2.17;;;1.92;;
75135;SDS011;63707;52.212;9.540;2023-08-06T09:28:50;4.05;;;2.15;;
75135;SDS011;63707;52.212;9.540;2023-08-06T09:31:17;2.05;;;1.80;;
75135;SDS011;63707;52.212;9.540;2023-08-06T09:33:44;2.80;;;1.98;;
75135;SDS011;63707;52.212;9.540;2023-08-06T09:36:10;4.70;;;2.30;;
75135;SDS011;63707;52.212;9.540;2023-08-06T09:38:39;3.40;;;1.80;;
75135;SDS011;63707;52.212;9.540;2023-08-06T09:41:05;3.42;;;1.90;;
75135;SDS011;63707;52.212;9.540;2023-08-06T09:43:31;2.47;;;1.88;;
75135;SDS011;63707;52.212;9.540;2023-08-06T09:46:10;2.75;;;1.83;;
75135;SDS011;63707;52.212;9.540;2023-08-06T09:48:36;3.40;;;1.90;;
75135;SDS011;63707;52.212;9.540;2023-08-06T09:51:03;4.05;;;2.00;;
75135;SDS011;63707;52.212;9.540;2023-08-06T09:53:30;3.85;;;2.45;;
75135;SDS011;63707;52.212;9.540;2023-08-06T09:55:59;3.60;;;2.05;;
75135;SDS011;63707;52.212;9.540;2023-08-06T09:58:25;6.38;;;2.20;;
75135;SDS011;63707;52.212;9.540;2023-08-06T10:00:51;2.78;;;2.10;;
75135;SDS011;63707;52.212;9.540;2023-08-06T10:03:17;3.20;;;1.92;;
75135;SDS011;63707;52.212;9.540;2023-08-06T10:05:44;2.53;;;2.10;;
75135;SDS011;63707;52.212;9.540;2023-08-06T10:08:11;2.58;;;2.00;;
75135;SDS011;63707;52.212;9.540;2023-08-06T10:10:36;2.67;;;2.30;;
75135;SDS011;63707;52.212;9.540;2023-08-06T10:13:02;3.15;;;2.05;;
75135;SDS011;63707;52.212;9.540;2023-08-06T10:15:31;6.15;;;2.30;;
75135;SDS011;63707;52.212;9.540;2023-08-06T10:17:58;6.03;;;2.40;;
75135;SDS011;63707;52.212;9.540;2023-08-06T10:20:26;7.80;;;2.63;;
75135;SDS011;63707;52.212;9.540;2023-08-06T10:22:59;5.30;;;2.67;;
75135;SDS011;63707;52.212;9.540;2023-08-06T10:25:28;2.65;;;2.17;;
75135;SDS011;63707;52.212;9.540;2023-08-06T10:27:56;3.97;;;2.20;;
75135;SDS011;63707;52.212;9.540;2023-08-06T10:30:24;3.35;;;2.45;;
75135;SDS011;63707;52.212;9.540;2023-08-06T10:32:54;5.88;;;2.63;;
75135;SDS011;63707;52.212;9.540;2023-08-06T10:35:32;2.97;;;2.03;;
75135;SDS011;63707;52.212;9.540;2023-08-06T10:38:03;2.50;;;1.90;;
75135;SDS011;63707;52.212;9.540;2023-08-06T10:40:30;2.92;;;2.15;;
75135;SDS011;63707;52.212;9.540;2023-08-06T10:42:58;4.72;;;2.10;;
75135;SDS011;63707;52.212;9.540;2023-08-06T10:45:24;3.53;;;2.05;;
75135;SDS011;63707;52.212;9.540;2023-08-06T10:47:53;2.97;;;2.10;;
75135;SDS011;63707;52.212;9.540;2023-08-06T10:50:20;4.45;;;2.17;;
75135;SDS011;63707;52.212;9.540;2023-08-06T10:52:46;3.15;;;2.30;;
75135;SDS011;63707;52.212;9.540;2023-08-06T10:55:13;3.80;;;2.28;;
75135;SDS011;63707;52.212;9.540;2023-08-06T10:57:40;3.75;;;2.25;;
75135;SDS011;63707;52.212;9.540;2023-08-06T11:00:06;3.45;;;2.17;;
75135;SDS011;63707;52.212;9.540;2023-08-06T11:02:33;4.30;;;2.20;;
75135;SDS011;63707;52.212;9.540;2023-08-06T11:05:04;2.88;;;2.10;;
75135;SDS011;63707;52.212;9.540;2023-08-06T11:07:30;4.68;;;2.13;;
75135;SDS011;63707;52.212;9.540;2023-08-06T11:10:00;2.53;;;1.98;;
75135;SDS011;63707;52.212;9.540;2023-08-06T11:12:27;2.90;;;2.20;;
75135;SDS011;63707;52.212;9.540;2023-08-06T11:14:54;3.60;;;2.10;;
75135;SDS011;63707;52.212;9.540;2023-08-06T11:17:20;2.17;;;1.67;;
75135;SDS011;63707;52.212;9.540;2023-08-06T11:19:46;2.60;;;1.83;;
75135;SDS011;63707;52.212;9.540;2023-08-06T11:22:11;2.90;;;2.00;;
75135;SDS011;63707;52.212;9.540;2023-08-06T11:24:37;2.63;;;1.90;;
75135;SDS011;63707;52.212;9.540;2023-08-06T11:27:05;2.70;;;1.73;;
75135;SDS011;63707;52.212;9.540;2023-08-06T11:29:36;6.50;;;1.90;;
75135;SDS011;63707;52.212;9.540;2023-08-06T11:32:04;3.72;;;1.77;;
75135;SDS011;63707;52.212;9.540;2023-08-06T11:34:30;2.72;;;2.00;;
75135;SDS011;63707;52.212;9.540;2023-08-06T11:36:56;3.53;;;1.95;;
75135;SDS011;63707;52.212;9.540;2023-08-06T11:39:22;4.70;;;1.70;;
75135;SDS011;63707;52.212;9.540;2023-08-06T11:41:48;2.70;;;1.90;;
75135;SDS011;63707;52.212;9.540;2023-08-06T11:44:14;2.22;;;1.70;;
75135;SDS011;63707;52.212;9.540;2023-08-06T11:46:52;2.65;;;1.77;;
75135;SDS011;63707;52.212;9.540;2023-08-06T11:49:19;2.80;;;1.80;;
75135;SDS011;63707;52.212;9.540;2023-08-06T11:51:47;2.33;;;1.70;;
75135;SDS011;63707;52.212;9.540;2023-08-06T11:54:12;3.17;;;1.73;;
75135;SDS011;63707;52.212;9.540;2023-08-06T11:56:38;3.95;;;1.95;;
75135;SDS011;63707;52.212;9.540;2023-08-06T11:59:03;1.95;;;1.65;;
75135;SDS011;63707;52.212;9.540;2023-08-06T12:01:30;2.70;;;1.75;;
75135;SDS011;63707;52.212;9.540;2023-08-06T12:03:58;2.75;;;1.90;;
75135;SDS011;63707;52.212;9.540;2023-08-06T12:06:28;3.78;;;1.63;;
75135;SDS011;63707;52.212;9.540;2023-08-06T12:08:53;2.33;;;1.80;;
75135;SDS011;63707;52.212;9.540;2023-08-06T12:11:20;3.38;;;2.10;;
75135;SDS011;63707;52.212;9.540;2023-08-06T12:13:46;4.80;;;1.85;;
75135;SDS011;63707;52.212;9.540;2023-08-06T12:16:15;2.83;;;2.13;;
75135;SDS011;63707;52.212;9.540;2023-08-06T12:18:43;3.05;;;1.98;;
75135;SDS011;63707;52.212;9.540;2023-08-06T12:21:09;5.72;;;2.33;;
75135;SDS011;63707;52.212;9.540;2023-08-06T12:23:36;3.00;;;2.08;;
75135;SDS011;63707;52.212;9.540;2023-08-06T12:26:01;4.22;;;1.67;;
75135;SDS011;63707;52.212;9.540;2023-08-06T12:28:27;3.70;;;2.20;;
75135;SDS011;63707;52.212;9.540;2023-08-06T12:30:52;4.97;;;2.08;;
75135;SDS011;63707;52.212;9.540;2023-08-06T12:33:20;3.78;;;2.00;;
75135;SDS011;63707;52.212;9.540;2023-08-06T12:35:45;2.75;;;1.52;;
75135;SDS011;63707;52.212;9.540;2023-08-06T12:38:11;4.25;;;2.30;;
75135;SDS011;63707;52.212;9.540;2023-08-06T12:40:38;2.50;;;2.05;;
75135;SDS011;63707;52.212;9.540;2023-08-06T12:43:03;4.93;;;2.35;;
75135;SDS011;63707;52.212;9.540;2023-08-06T12:45:29;2.97;;;2.35;;
75135;SDS011;63707;52.212;9.540;2023-08-06T12:47:54;3.17;;;2.50;;
75135;SDS011;63707;52.212;9.540;2023-08-06T12:50:20;3.60;;;2.45;;
75135;SDS011;63707;52.212;9.540;2023-08-06T12:52:45;3.25;;;2.50;;
75135;SDS011;63707;52.212;9.540;2023-08-06T12:55:11;5.93;;;2.50;;
75135;SDS011;63707;52.212;9.540;2023-08-06T12:57:38;4.75;;;2.80;;
75135;SDS011;63707;52.212;9.540;2023-08-06T13:00:04;5.47;;;2.67;;
75135;SDS011;63707;52.212;9.540;2023-08-06T13:02:30;4.43;;;2.78;;
75135;SDS011;63707;52.212;9.540;2023-08-06T13:04:56;4.38;;;2.75;;
75135;SDS011;63707;52.212;9.540;2023-08-06T13:07:21;3.00;;;2.67;;
75135;SDS011;63707;52.212;9.540;2023-08-06T13:09:47;5.18;;;2.85;;
75135;SDS011;63707;52.212;9.540;2023-08-06T13:12:12;5.80;;;3.05;;
75135;SDS011;63707;52.212;9.540;2023-08-06T13:14:39;4.78;;;3.10;;
75135;SDS011;63707;52.212;9.540;2023-08-06T13:17:04;4.10;;;2.50;;
75135;SDS011;63707;52.212;9.540;2023-08-06T13:19:32;5.07;;;2.70;;
75135;SDS011;63707;52.212;9.540;2023-08-06T13:21:59;4.15;;;2.53;;
75135;SDS011;63707;52.212;9.540;2023-08-06T13:24:30;4.20;;;2.80;;
75135;SDS011;63707;52.212;9.540;2023-08-06T13:26:55;2.85;;;2.20;;
75135;SDS011;63707;52.212;9.540;2023-08-06T13:29:21;3.30;;;2.25;;
75135;SDS011;63707;52.212;9.540;2023-08-06T13:31:48;4.15;;;2.53;;
75135;SDS011;63707;52.212;9.540;2023-08-06T13:34:13;3.13;;;2.47;;
75135;SDS011;63707;52.212;9.540;2023-08-06T13:36:41;4.50;;;2.55;;
75135;SDS011;63707;52.212;9.540;2023-08-06T13:39:07;3.28;;;2.33;;
75135;SDS011;63707;52.212;9.540;2023-08-06T13:41:33;2.47;;;1.90;;
75135;SDS011;63707;52.212;9.540;2023-08-06T13:43:58;3.03;;;1.88;;
75135;SDS011;63707;52.212;9.540;2023-08-06T13:46:24;6.43;;;1.90;;
75135;SDS011;63707;52.212;9.540;2023-08-06T13:48:51;2.22;;;1.83;;
75135;SDS011;63707;52.212;9.540;2023-08-06T13:51:16;3.33;;;2.20;;
75135;SDS011;63707;52.212;9.540;2023-08-06T13:53:42;2.53;;;1.73;;
75135;SDS011;63707;52.212;9.540;2023-08-06T13:56:08;4.63;;;1.90;;
75135;SDS011;63707;52.212;9.540;2023-08-06T13:58:35;2.50;;;2.05;;
75135;SDS011;63707;52.212;9.540;2023-08-06T14:01:01;3.08;;;2.00;;
75135;SDS011;63707;52.212;9.540;2023-08-06T14:03:26;3.20;;;2.13;;
75135;SDS011;63707;52.212;9.540;2023-08-06T14:05:53;3.15;;;2.20;;
75135;SDS011;63707;52.212;9.540;2023-08-06T14:08:21;3.08;;;2.13;;
75135;SDS011;63707;52.212;9.540;2023-08-06T14:10:48;3.08;;;2.20;;
75135;SDS011;63707;52.212;9.540;2023-08-06T14:13:13;3.33;;;2.05;;
75135;SDS011;63707;52.212;9.540;2023-08-06T14:15:39;5.18;;;2.30;;
75135;SDS011;63707;52.212;9.540;2023-08-06T14:18:05;4.15;;;2.25;;
75135;SDS011;63707;52.212;9.540;2023-08-06T14:20:30;2.67;;;2.15;;
75135;SDS011;63707;52.212;9.540;2023-08-06T14:22:57;3.92;;;2.50;;
75135;SDS011;63707;52.212;9.540;2023-08-06T14:25:23;3.97;;;2.63;;
75135;SDS011;63707;52.212;9.540;2023-08-06T14:27:48;4.15;;;2.47;;
75135;SDS011;63707;52.212;9.540;2023-08-06T14:30:14;3.40;;;2.40;;
75135;SDS011;63707;52.212;9.540;2023-08-06T14:32:39;3.30;;;2.40;;
75135;SDS011;63707;52.212;9.540;2023-08-06T14:35:05;3.78;;;2.20;;
75135;SDS011;63707;52.212;9.540;2023-08-06T14:37:31;4.70;;;2.20;;